Time,TemperatureF,DewpointF,PressureIn,WindDirection,WindDirectionDegrees,WindSpeedMPH,WindSpeedGustMPH,Humidity,HourlyPrecipIn,Conditions,Clouds,dailyrainin,SoftwareType,DateUTC
2013-02-28 00:00:00,67.1,56.6,29.91,NNE,22,1.1,1.1,69,0.00,CLR,,0.62,WeatherDisplay:10.37,2013-02-28 05:00:00,
2013-02-28 00:01:00,67.1,56.6,29.91,NNE,22,1.1,1.1,69,0.00,RA,,0.00,WeatherDisplay:10.37,2013-02-28 05:01:00,
2013-02-28 00:06:00,67.1,56.6,29.91,WSW,248,2.3,2.3,69,0.00,RA,,0.00,WeatherDisplay:10.37,2013-02-28 05:06:00,
2013-02-28 00:11:00,67.1,56.6,29.89,West,270,1.1,1.1,69,0.00,CLR,,0.00,WeatherDisplay:10.37,2013-02-28 05:11:00,
2013-02-28 00:16:00,67.1,56.6,29.89,West,270,2.3,2.3,69,0.00,CLR,,0.00,WeatherDisplay:10.37,2013-02-28 05:16:00,
2013-02-28 00:21:00,67.1,56.6,29.89,NW,315,2.3,2.3,69,0.00,CLR,,0.00,WeatherDisplay:10.37,2013-02-28 05:21:00,
2013-02-28 00:26:00,67.1,56.6,29.89,NW,315,1.1,1.1,69,0.00,CLR,,0.00,WeatherDisplay:10.37,2013-02-28 05:26:00,
2013-02-28 00:31:00,67.3,56.4,29.88,West,270,0.0,0.8,68,0.00,CLR,,0.00,WeatherDisplay:10.37,2013-02-28 05:31:00,
2013-02-28 00:36:00,67.1,56.2,29.88,West,270,2.3,2.3,68,0.00,CLR,,0.00,WeatherDisplay:10.37,2013-02-28 05:36:00,
2013-02-28 00:41:00,66.9,56.0,29.88,WSW,248,1.1,1.1,68,0.00,CLR,,0.00,WeatherDisplay:10.37,2013-02-28 05:41:00,
2013-02-28 00:46:00,66.9,56.0,29.88,West,270,1.1,1.1,68,0.00,CLR,,0.00,WeatherDisplay:10.37,2013-02-28 05:46:00,
2013-02-28 00:51:00,66.9,56.0,29.88,WNW,292,1.1,1.1,68,0.00,CLR,,0.00,WeatherDisplay:10.37,2013-02-28 05:51:00,
2013-02-28 00:56:00,67.1,56.2,29.88,NW,315,3.5,3.5,68,0.00,CLR,,0.00,WeatherDisplay:10.37,2013-02-28 05:56:00,
2013-02-28 01:01:00,67.1,56.2,29.88,WNW,292,2.3,2.3,68,0.00,CLR,,0.00,WeatherDisplay:10.37,2013-02-28 06:01:00,
2013-02-28 01:06:00,67.1,55.8,29.88,SW,225,2.3,2.3,67,0.00,CLR,,0.00,WeatherDisplay:10.37,2013-02-28 06:06:00,
2013-02-28 01:11:00,67.1,55.8,29.88,SW,225,0.0,0.8,67,0.00,CLR,,0.00,WeatherDisplay:10.37,2013-02-28 06:11:00,
2013-02-28 01:16:00,67.1,55.8,29.88,WNW,292,2.3,2.3,67,0.00,CLR,,0.00,WeatherDisplay:10.37,2013-02-28 06:16:00,
2013-02-28 01:21:00,67.1,55.8,29.88,ENE,68,1.1,1.1,67,0.00,CLR,,0.00,WeatherDisplay:10.37,2013-02-28 06:21:00,
2013-02-28 01:26:00,67.1,55.8,29.88,WSW,248,1.1,1.1,67,0.00,CLR,,0.00,WeatherDisplay:10.37,2013-02-28 06:26:00,
2013-02-28 01:31:00,67.1,55.4,29.87,SSW,202,0.0,0.3,66,0.00,CLR,,0.00,WeatherDisplay:10.37,2013-02-28 06:31:00,
2013-02-28 01:36:00,67.1,55.4,29.87,West,270,2.3,2.3,66,0.00,CLR,,0.00,WeatherDisplay:10.37,2013-02-28 06:36:00,
2013-02-28 01:41:00,66.9,55.2,29.87,WSW,248,2.3,2.3,66,0.00,CLR,,0.00,WeatherDisplay:10.37,2013-02-28 06:41:00,
2013-02-28 01:46:00,66.9,55.2,29.87,West,270,1.1,1.1,66,0.00,CLR,,0.00,WeatherDisplay:10.37,2013-02-28 06:46:00,
2013-02-28 01:51:00,66.7,55.0,29.85,West,270,2.3,2.3,66,0.00,CLR,,0.00,WeatherDisplay:10.37,2013-02-28 06:51:00,
2013-02-28 01:56:00,66.7,55.0,29.85,WNW,292,0.0,0.3,66,0.00,CLR,,0.00,WeatherDisplay:10.37,2013-02-28 06:56:00,
2013-02-28 02:01:00,66.7,55.0,29.85,West,270,1.1,1.1,66,0.00,CLR,,0.00,WeatherDisplay:10.37,2013-02-28 07:01:00,
2013-02-28 02:06:00,66.6,54.8,29.85,West,270,0.0,0.6,66,0.00,CLR,,0.00,WeatherDisplay:10.37,2013-02-28 07:06:00,
2013-02-28 02:11:00,66.7,54.6,29.86,WSW,248,1.1,1.1,65,0.00,CLR,,0.00,WeatherDisplay:10.37,2013-02-28 07:11:00,
2013-02-28 02:16:00,66.6,54.4,29.86,WSW,248,3.5,3.5,65,0.00,CLR,,0.00,WeatherDisplay:10.37,2013-02-28 07:16:00,
2013-02-28 02:21:00,66.4,54.3,29.86,WNW,292,3.5,3.5,65,0.00,CLR,,0.00,WeatherDisplay:10.37,2013-02-28 07:21:00,
2013-02-28 02:27:00,66.2,54.1,29.86,WSW,248,2.3,2.3,65,0.00,CLR,,0.00,WeatherDisplay:10.37,2013-02-28 07:27:00,
2013-02-28 02:32:00,66.4,54.3,29.85,NW,315,3.5,3.5,65,0.00,CLR,,0.00,WeatherDisplay:10.37,2013-02-28 07:32:00,
2013-02-28 02:37:00,66.2,54.1,29.85,WNW,292,2.3,2.3,65,0.00,CLR,,0.00,WeatherDisplay:10.37,2013-02-28 07:37:00,
2013-02-28 02:42:00,66.0,53.9,29.85,West,270,2.3,2.3,65,0.00,CLR,,0.00,WeatherDisplay:10.37,2013-02-28 07:42:00,
2013-02-28 02:47:00,65.8,53.7,29.85,SW,225,3.5,3.5,65,0.00,CLR,,0.00,WeatherDisplay:10.37,2013-02-28 07:47:00,
2013-02-28 02:52:00,66.0,53.9,29.86,NW,315,2.3,2.3,65,0.00,CLR,,0.00,WeatherDisplay:10.37,2013-02-28 07:52:00,
2013-02-28 02:57:00,65.8,53.7,29.86,West,270,3.5,3.5,65,0.00,CLR,,0.00,WeatherDisplay:10.37,2013-02-28 07:57:00,
2013-02-28 03:02:00,65.8,53.7,29.86,NW,315,2.3,2.3,65,0.00,CLR,,0.00,WeatherDisplay:10.37,2013-02-28 08:02:00,
2013-02-28 03:07:00,65.8,53.3,29.86,SW,225,4.6,4.6,64,0.00,CLR,,0.00,WeatherDisplay:10.37,2013-02-28 08:07:00,
2013-02-28 03:12:00,65.7,53.1,29.86,NNE,22,2.3,2.3,64,0.00,CLR,,0.00,WeatherDisplay:10.37,2013-02-28 08:12:00,
2013-02-28 03:17:00,65.7,53.1,29.86,NW,315,2.3,2.3,64,0.00,CLR,,0.00,WeatherDisplay:10.37,2013-02-28 08:17:00,
2013-02-28 06:44:00,62.4,51.7,29.90,NW,315,5.9,5.9,68,0.00,CLR,,0.00,WeatherDisplay:10.37,2013-02-28 11:44:00,
2013-02-28 06:49:00,62.4,51.7,29.91,NNW,338,2.3,2.3,68,0.00,CLR,,0.00,WeatherDisplay:10.37,2013-02-28 11:49:00,
2013-02-28 06:54:00,62.8,52.1,29.91,SW,225,1.1,1.1,68,0.00,CLR,,0.00,WeatherDisplay:10.37,2013-02-28 11:54:00,
2013-02-28 06:59:00,62.8,52.1,29.91,West,270,1.1,1.1,68,0.00,CLR,,0.00,WeatherDisplay:10.37,2013-02-28 11:59:00,
2013-02-28 07:04:00,62.8,52.1,29.91,South,180,3.5,3.5,68,0.00,CLR,,0.00,WeatherDisplay:10.37,2013-02-28 12:04:00,
2013-02-28 07:09:00,62.8,52.1,29.91,NW,315,1.1,1.1,68,0.00,CLR,,0.00,WeatherDisplay:10.37,2013-02-28 12:09:00,
2013-02-28 07:14:00,62.4,51.7,29.91,NNW,338,4.6,4.6,68,0.00,CLR,,0.00,WeatherDisplay:10.37,2013-02-28 12:14:00,
2013-02-28 07:19:00,62.4,51.7,29.91,West,270,2.5,2.5,68,0.00,CLR,,0.00,WeatherDisplay:10.37,2013-02-28 12:19:00,
2013-02-28 07:24:00,62.8,52.1,29.91,SW,225,2.3,2.3,68,0.00,CLR,,0.00,WeatherDisplay:10.37,2013-02-28 12:24:00,
2013-02-28 07:29:00,62.6,51.9,29.92,West,270,1.1,1.1,68,0.00,CLR,,0.00,WeatherDisplay:10.37,2013-02-28 12:29:00,
2013-02-28 07:34:00,62.8,52.1,29.92,NNE,22,1.1,1.1,68,0.00,CLR,,0.00,WeatherDisplay:10.37,2013-02-28 12:34:00,
2013-02-28 07:39:00,62.8,52.1,29.92,North,0,0.0,0.9,68,0.00,CLR,,0.00,WeatherDisplay:10.37,2013-02-28 12:39:00,
2013-02-28 07:44:00,63.0,52.2,29.92,NNW,338,2.3,2.3,68,0.00,CLR,,0.00,WeatherDisplay:10.37,2013-02-28 12:44:00,
2013-02-28 07:49:00,62.8,52.1,29.92,West,270,0.0,0.8,68,0.00,CLR,,0.00,WeatherDisplay:10.37,2013-02-28 12:49:00,
2013-02-28 07:54:00,63.0,52.2,29.92,West,270,2.3,2.3,68,0.00,CLR,,0.00,WeatherDisplay:10.37,2013-02-28 12:54:00,
2013-02-28 07:59:00,63.1,52.4,29.92,SW,225,3.5,3.5,68,0.00,CLR,,0.00,WeatherDisplay:10.37,2013-02-28 12:59:00,
2013-02-28 08:04:00,63.5,52.3,29.92,NW,315,3.5,3.5,67,0.00,CLR,,0.00,WeatherDisplay:10.37,2013-02-28 13:04:00,
2013-02-28 08:09:00,63.5,52.7,29.93,NNE,22,1.1,1.1,68,0.00,CLR,,0.00,WeatherDisplay:10.37,2013-02-28 13:09:00,
2013-02-28 08:14:00,63.5,52.3,29.93,WNW,292,2.3,2.3,67,0.00,CLR,,0.00,WeatherDisplay:10.37,2013-02-28 13:14:00,
2013-02-28 08:19:00,63.5,52.3,29.93,South,180,0.0,1.6,67,0.00,CLR,,0.00,WeatherDisplay:10.37,2013-02-28 13:19:00,
2013-02-28 08:24:00,63.7,52.5,29.93,NW,315,4.6,4.6,67,0.00,CLR,,0.00,WeatherDisplay:10.37,2013-02-28 13:24:00,
2013-02-28 08:29:00,63.9,52.7,29.93,NNE,22,2.3,2.3,67,0.00,CLR,,0.00,WeatherDisplay:10.37,2013-02-28 13:29:00,
2013-02-28 08:34:00,64.0,52.9,29.93,NW,315,2.3,2.3,67,0.00,CLR,,0.00,WeatherDisplay:10.37,2013-02-28 13:34:00,
2013-02-28 08:39:00,64.4,53.2,29.93,NNW,338,5.8,5.8,67,0.00,CLR,,0.00,WeatherDisplay:10.37,2013-02-28 13:39:00,
2013-02-28 08:44:00,64.9,53.7,29.93,West,270,2.3,2.3,67,0.00,CLR,,0.00,WeatherDisplay:10.37,2013-02-28 13:44:00,
2013-02-28 08:49:00,65.8,54.6,29.93,WNW,292,2.3,2.3,67,0.00,CLR,,0.00,WeatherDisplay:10.37,2013-02-28 13:49:00,
2013-02-28 08:54:00,66.0,54.3,29.93,NW,315,2.3,2.3,66,0.00,CLR,,0.00,WeatherDisplay:10.37,2013-02-28 13:54:00,
2013-02-28 08:59:00,66.0,54.3,29.93,NW,315,1.1,1.5,66,0.00,CLR,,0.00,WeatherDisplay:10.37,2013-02-28 13:59:00,
2013-02-28 09:04:00,65.7,54.0,29.93,NNW,338,4.6,4.6,66,0.00,CLR,,0.00,WeatherDisplay:10.37,2013-02-28 14:04:00,
2013-02-28 09:09:00,65.7,54.0,29.94,NW,315,7.9,7.9,66,0.00,CLR,,0.00,WeatherDisplay:10.37,2013-02-28 14:09:00,
2013-02-28 09:14:00,65.7,54.0,29.94,NW,315,2.3,2.3,66,0.00,CLR,,0.00,WeatherDisplay:10.37,2013-02-28 14:14:00,
2013-02-28 09:19:00,66.7,55.0,29.94,North,0,1.1,1.8,66,0.00,CLR,,0.00,WeatherDisplay:10.37,2013-02-28 14:19:00,
2013-02-28 09:24:00,67.1,54.9,29.94,NW,315,3.5,3.5,65,0.00,CLR,,0.00,WeatherDisplay:10.37,2013-02-28 14:24:00,
2013-02-28 09:29:00,67.8,55.2,29.94,West,270,0.0,2.0,64,0.00,CLR,,0.00,WeatherDisplay:10.37,2013-02-28 14:29:00,
2013-02-28 09:34:00,68.2,55.5,29.94,West,270,4.9,4.9,64,0.00,CLR,,0.00,WeatherDisplay:10.37,2013-02-28 14:34:00,
2013-02-28 09:39:00,68.0,55.4,29.94,NNE,22,8.1,8.1,64,0.00,CLR,,0.00,WeatherDisplay:10.37,2013-02-28 14:39:00,
2013-02-28 09:44:00,68.0,54.9,29.94,NNW,338,3.5,3.5,63,0.00,CLR,,0.00,WeatherDisplay:10.37,2013-02-28 14:44:00,
2013-02-28 09:49:00,68.2,55.1,29.94,West,270,1.1,1.6,63,0.00,CLR,,0.00,WeatherDisplay:10.37,2013-02-28 14:49:00,
2013-02-28 09:54:00,68.0,54.5,29.94,NNW,338,6.9,6.9,62,0.00,CLR,,0.00,WeatherDisplay:10.37,2013-02-28 14:54:00,
2013-02-28 09:59:00,68.2,54.7,29.94,WNW,292,1.1,1.8,62,0.00,CLR,,0.00,WeatherDisplay:10.37,2013-02-28 14:59:00,
2013-02-28 10:04:00,68.2,54.7,29.94,West,270,4.7,4.7,62,0.00,CLR,,0.00,WeatherDisplay:10.37,2013-02-28 15:04:00,
2013-02-28 10:09:00,68.2,54.7,29.94,WSW,248,3.6,3.6,62,0.00,CLR,,0.00,WeatherDisplay:10.37,2013-02-28 15:09:00,
2013-02-28 10:14:00,68.2,54.2,29.94,NW,315,2.3,2.3,61,0.00,CLR,,0.00,WeatherDisplay:10.37,2013-02-28 15:14:00,
2013-02-28 10:19:00,68.5,55.0,29.94,SSE,158,0.0,1.5,62,0.00,CLR,,0.00,WeatherDisplay:10.37,2013-02-28 15:19:00,
2013-02-28 10:24:00,68.9,54.9,29.94,NW,315,4.6,4.6,61,0.00,CLR,,0.00,WeatherDisplay:10.37,2013-02-28 15:24:00,
2013-02-28 10:29:00,70.0,55.5,29.94,NW,315,2.3,2.3,60,0.00,CLR,,0.00,WeatherDisplay:10.37,2013-02-28 15:29:00,
2013-02-28 10:34:00,70.3,55.3,29.94,WNW,292,6.9,6.9,59,0.00,CLR,,0.00,WeatherDisplay:10.37,2013-02-28 15:34:00,
2013-02-28 10:39:00,70.5,55.5,29.94,WNW,292,4.6,4.6,59,0.00,CLR,,0.00,WeatherDisplay:10.37,2013-02-28 15:39:00,
2013-02-28 10:45:00,70.5,55.0,29.94,WSW,248,4.6,4.6,58,0.00,CLR,,0.00,WeatherDisplay:10.37,2013-02-28 15:45:00,
2013-02-28 10:50:00,70.9,55.4,29.94,NNW,338,3.5,3.5,58,0.00,CLR,,0.00,WeatherDisplay:10.37,2013-02-28 15:50:00,
2013-02-28 10:55:00,71.2,55.7,29.94,West,270,3.5,3.5,58,0.00,CLR,,0.00,WeatherDisplay:10.37,2013-02-28 15:55:00,
2013-02-28 11:00:00,71.2,55.7,29.94,West,270,4.6,4.6,58,0.00,CLR,,0.00,WeatherDisplay:10.37,2013-02-28 16:00:00,
2013-02-28 11:05:00,71.2,54.7,29.94,NNW,338,2.8,2.8,56,0.00,CLR,,0.00,WeatherDisplay:10.37,2013-02-28 16:05:00,
2013-02-28 11:10:00,71.2,55.7,29.94,West,270,2.8,2.8,58,0.00,CLR,,0.00,WeatherDisplay:10.37,2013-02-28 16:10:00,
2013-02-28 11:15:00,71.1,55.1,29.94,NNE,22,6.1,6.1,57,0.00,CLR,,0.00,WeatherDisplay:10.37,2013-02-28 16:15:00,
2013-02-28 11:20:00,70.7,54.2,29.94,NW,315,3.6,3.6,56,0.00,CLR,,0.00,WeatherDisplay:10.37,2013-02-28 16:20:00,
2013-02-28 11:25:00,70.9,54.4,29.94,NW,315,4.6,4.6,56,0.00,CLR,,0.00,WeatherDisplay:10.37,2013-02-28 16:25:00,
2013-02-28 11:30:00,71.1,55.1,29.94,North,0,3.5,3.5,57,0.00,CLR,,0.00,WeatherDisplay:10.37,2013-02-28 16:30:00,
2013-02-28 11:35:00,71.6,55.6,29.94,NNE,22,3.5,3.5,57,0.00,CLR,,0.00,WeatherDisplay:10.37,2013-02-28 16:35:00,
2013-02-28 11:40:00,72.0,55.4,29.94,NE,45,3.5,3.5,56,0.00,CLR,,0.00,WeatherDisplay:10.37,2013-02-28 16:40:00,
2013-02-28 11:45:00,71.8,54.2,29.94,NNW,338,5.8,5.8,54,0.00,CLR,,0.00,WeatherDisplay:10.37,2013-02-28 16:45:00,
2013-02-28 11:50:00,71.8,53.7,29.93,NNE,22,4.6,4.6,53,0.00,CLR,,0.00,WeatherDisplay:10.37,2013-02-28 16:50:00,
2013-02-28 11:55:00,72.0,53.9,29.93,NNE,22,2.3,2.3,53,0.00,CLR,,0.00,WeatherDisplay:10.37,2013-02-28 16:55:00,
2013-02-28 12:00:00,72.1,54.1,29.93,West,270,2.3,2.3,53,0.00,CLR,,0.00,WeatherDisplay:10.37,2013-02-28 17:00:00,
2013-02-28 12:05:00,71.8,54.2,29.93,NNW,338,0.0,1.3,54,0.00,CLR,,0.00,WeatherDisplay:10.37,2013-02-28 17:05:00,
2013-02-28 12:10:00,71.6,54.1,29.93,NNW,338,3.1,3.1,54,0.00,CLR,,0.00,WeatherDisplay:10.37,2013-02-28 17:10:00,
2013-02-28 12:15:00,71.4,54.4,29.93,WNW,292,2.3,2.3,55,0.00,CLR,,0.00,WeatherDisplay:10.37,2013-02-28 17:15:00,
2013-02-28 12:20:00,70.9,53.9,29.93,WNW,292,3.5,3.5,55,0.00,CLR,,0.00,WeatherDisplay:10.37,2013-02-28 17:20:00,
2013-02-28 12:25:00,70.7,54.2,29.93,West,270,4.6,4.6,56,0.00,CLR,,0.00,WeatherDisplay:10.37,2013-02-28 17:25:00,
2013-02-28 12:30:00,70.3,53.9,29.93,NW,315,1.1,1.1,56,0.00,CLR,,0.00,WeatherDisplay:10.37,2013-02-28 17:30:00,
2013-02-28 12:35:00,70.0,54.0,29.93,NW,315,2.3,2.3,57,0.00,CLR,,0.00,WeatherDisplay:10.37,2013-02-28 17:35:00,
2013-02-28 12:40:00,69.8,53.9,29.93,NNE,22,2.3,2.3,57,0.00,CLR,,0.00,WeatherDisplay:10.37,2013-02-28 17:40:00,
2013-02-28 12:45:00,69.4,53.5,29.93,SE,135,3.5,3.5,57,0.00,CLR,,0.00,WeatherDisplay:10.37,2013-02-28 17:45:00,
2013-02-28 12:50:00,69.3,52.9,29.93,NW,315,2.3,2.3,56,0.00,CLR,,0.00,WeatherDisplay:10.37,2013-02-28 17:50:00,
2013-02-28 12:55:00,68.9,52.1,29.93,NW,315,2.3,2.3,55,0.00,CLR,,0.00,WeatherDisplay:10.37,2013-02-28 17:55:00,
2013-02-28 13:00:00,69.3,54.3,29.93,WSW,248,1.1,1.1,59,0.00,CLR,,0.00,WeatherDisplay:10.37,2013-02-28 18:00:00,
2013-02-28 13:05:00,69.3,54.3,29.93,NW,315,1.1,1.1,59,0.00,CLR,,0.00,WeatherDisplay:10.37,2013-02-28 18:05:00,
2013-02-28 13:10:00,68.9,53.5,29.91,North,0,1.4,1.4,58,0.00,CLR,,0.00,WeatherDisplay:10.37,2013-02-28 18:10:00,
2013-02-28 13:15:00,68.7,53.8,29.91,NW,315,2.3,2.3,59,0.00,CLR,,0.00,WeatherDisplay:10.37,2013-02-28 18:15:00,
2013-02-28 13:20:00,68.7,53.8,29.91,NNW,338,1.1,1.1,59,0.00,CLR,,0.00,WeatherDisplay:10.37,2013-02-28 18:20:00,
2013-02-28 13:25:00,68.9,53.5,29.91,West,270,1.1,1.1,58,0.00,CLR,,0.00,WeatherDisplay:10.37,2013-02-28 18:25:00,
2013-02-28 13:30:00,69.1,53.2,29.91,WSW,248,1.1,1.1,57,0.00,CLR,,0.00,WeatherDisplay:10.37,2013-02-28 18:30:00,
2013-02-28 13:35:00,69.3,53.8,29.91,NNW,338,0.0,1.0,58,0.00,CLR,,0.00,WeatherDisplay:10.37,2013-02-28 18:35:00,
2013-02-28 13:40:00,69.3,53.4,29.91,NNW,338,1.1,1.1,57,0.00,CLR,,0.00,WeatherDisplay:10.37,2013-02-28 18:40:00,
2013-02-28 13:45:00,69.3,53.8,29.91,NW,315,2.3,2.3,58,0.00,CLR,,0.00,WeatherDisplay:10.37,2013-02-28 18:45:00,
2013-02-28 13:50:00,69.3,53.8,29.90,West,270,2.3,2.3,58,0.00,CLR,,0.00,WeatherDisplay:10.37,2013-02-28 18:50:00,
2013-02-28 13:55:00,69.1,54.1,29.90,NW,315,1.1,1.1,59,0.00,CLR,,0.00,WeatherDisplay:10.37,2013-02-28 18:55:00,
2013-02-28 14:00:00,69.4,54.0,29.90,WSW,248,1.1,1.1,58,0.00,CLR,,0.00,WeatherDisplay:10.37,2013-02-28 19:00:00,
2013-02-28 14:05:00,70.0,54.0,29.90,West,270,1.1,1.1,57,0.00,CLR,,0.00,WeatherDisplay:10.37,2013-02-28 19:05:00,
2013-02-28 14:10:00,70.3,54.9,29.88,North,0,0.0,0.8,58,0.00,CLR,,0.00,WeatherDisplay:10.37,2013-02-28 19:10:00,
2013-02-28 14:15:00,71.1,53.6,29.88,NNW,338,2.3,2.3,54,0.00,CLR,,0.00,WeatherDisplay:10.37,2013-02-28 19:15:00,
2013-02-28 14:20:00,70.7,53.7,29.88,South,180,0.0,0.8,55,0.00,CLR,,0.00,WeatherDisplay:10.37,2013-02-28 19:20:00,
2013-02-28 14:25:00,70.9,54.4,29.88,West,270,3.5,3.5,56,0.00,CLR,,0.00,WeatherDisplay:10.37,2013-02-28 19:25:00,
2013-02-28 14:30:00,71.1,54.6,29.89,NW,315,0.0,0.7,56,0.00,CLR,,0.00,WeatherDisplay:10.37,2013-02-28 19:30:00,
2013-02-28 14:35:00,71.4,54.9,29.89,WSW,248,2.3,2.3,56,0.00,CLR,,0.00,WeatherDisplay:10.37,2013-02-28 19:35:00,
2013-02-28 14:40:00,71.4,54.9,29.89,NNW,338,2.9,2.9,56,0.00,CLR,,0.00,WeatherDisplay:10.37,2013-02-28 19:40:00,
2013-02-28 14:45:00,70.9,53.9,29.89,NNW,338,2.3,2.3,55,0.00,CLR,,0.00,WeatherDisplay:10.37,2013-02-28 19:45:00,
2013-02-28 14:50:00,70.7,52.7,29.89,NNW,338,1.1,1.1,53,0.00,CLR,,0.00,WeatherDisplay:10.37,2013-02-28 19:50:00,
2013-02-28 14:55:00,70.0,52.6,29.89,West,270,2.3,2.3,54,0.00,CLR,,0.00,WeatherDisplay:10.37,2013-02-28 19:55:00,
2013-02-28 15:01:00,70.0,53.1,29.89,WNW,292,0.0,0.2,55,0.00,CLR,,0.00,WeatherDisplay:10.37,2013-02-28 20:01:00,
2013-02-28 15:06:00,70.2,53.7,29.89,WSW,248,1.1,1.1,56,0.00,CLR,,0.00,WeatherDisplay:10.37,2013-02-28 20:06:00,
2013-02-28 15:11:00,70.2,52.7,29.89,WNW,292,1.1,1.1,54,0.00,CLR,,0.00,WeatherDisplay:10.37,2013-02-28 20:11:00,
2013-02-28 15:16:00,70.7,53.7,29.89,West,270,1.1,1.1,55,0.00,CLR,,0.00,WeatherDisplay:10.37,2013-02-28 20:16:00,
2013-02-28 15:21:00,70.9,53.9,29.89,NNE,22,2.3,2.3,55,0.00,CLR,,0.00,WeatherDisplay:10.37,2013-02-28 20:21:00,
2013-02-28 15:26:00,71.1,54.1,29.89,West,270,0.0,0.6,55,0.00,CLR,,0.00,WeatherDisplay:10.37,2013-02-28 20:26:00,
2013-02-28 15:31:00,70.9,52.9,29.88,NNW,338,2.3,2.3,53,0.00,CLR,,0.00,WeatherDisplay:10.37,2013-02-28 20:31:00,
2013-02-28 15:36:00,70.9,52.4,29.88,WNW,292,3.8,3.8,52,0.00,CLR,,0.00,WeatherDisplay:10.37,2013-02-28 20:36:00,
2013-02-28 15:41:00,70.9,52.9,29.88,NNW,338,1.3,1.3,53,0.00,CLR,,0.00,WeatherDisplay:10.37,2013-02-28 20:41:00,
2013-02-28 15:46:00,71.4,53.4,29.88,WNW,292,2.3,2.3,53,0.00,CLR,,0.00,WeatherDisplay:10.37,2013-02-28 20:46:00,
2013-02-28 15:51:00,71.6,53.0,29.88,West,270,0.0,0.7,52,0.00,CLR,,0.00,WeatherDisplay:10.37,2013-02-28 20:51:00,
2013-02-28 15:56:00,71.6,53.0,29.88,SE,135,2.3,2.3,52,0.00,CLR,,0.00,WeatherDisplay:10.37,2013-02-28 20:56:00,
2013-02-28 16:01:00,71.8,53.2,29.88,NW,315,3.5,3.5,52,0.00,CLR,,0.00,WeatherDisplay:10.37,2013-02-28 21:01:00,
2013-02-28 16:06:00,71.8,52.1,29.88,SW,225,0.0,0.7,50,0.00,CLR,,0.00,WeatherDisplay:10.37,2013-02-28 21:06:00,
2013-02-28 16:11:00,71.6,52.5,29.87,NNE,22,3.5,3.5,51,0.00,CLR,,0.00,WeatherDisplay:10.37,2013-02-28 21:11:00,
2013-02-28 16:16:00,71.4,51.3,29.87,West,270,3.5,3.5,49,0.00,CLR,,0.00,WeatherDisplay:10.37,2013-02-28 21:16:00,
2013-02-28 16:21:00,71.4,50.7,29.87,West,270,2.3,2.3,48,0.00,CLR,,0.00,WeatherDisplay:10.37,2013-02-28 21:21:00,
2013-02-28 16:26:00,71.4,52.3,29.87,WNW,292,1.4,1.4,51,0.00,CLR,,0.00,WeatherDisplay:10.37,2013-02-28 21:26:00,
2013-02-28 16:31:00,71.2,52.2,29.88,WNW,292,2.3,2.3,51,0.00,CLR,,0.00,WeatherDisplay:10.37,2013-02-28 21:31:00,
2013-02-28 16:36:00,71.1,51.5,29.88,West,270,2.3,2.3,50,0.00,CLR,,0.00,WeatherDisplay:10.37,2013-02-28 21:36:00,
2013-02-28 16:41:00,70.9,51.8,29.88,South,180,1.1,1.1,51,0.00,CLR,,0.00,WeatherDisplay:10.37,2013-02-28 21:41:00,
2013-02-28 16:46:00,71.1,53.1,29.88,West,270,1.1,1.1,53,0.00,CLR,,0.00,WeatherDisplay:10.37,2013-02-28 21:46:00,
2013-02-28 16:51:00,70.9,52.4,29.88,NW,315,0.0,0.6,52,0.00,CLR,,0.00,WeatherDisplay:10.37,2013-02-28 21:51:00,
2013-02-28 16:56:00,70.7,52.7,29.88,West,270,0.0,0.5,53,0.00,CLR,,0.00,WeatherDisplay:10.37,2013-02-28 21:56:00,
2013-02-28 17:01:00,70.3,52.9,29.88,West,270,1.1,1.1,54,0.00,CLR,,0.00,WeatherDisplay:10.37,2013-02-28 22:01:00,
2013-02-28 17:06:00,70.2,52.7,29.88,North,0,1.1,1.1,54,0.00,CLR,,0.00,WeatherDisplay:10.37,2013-02-28 22:06:00,
2013-02-28 17:11:00,70.2,53.2,29.88,WSW,248,1.1,1.1,55,0.00,CLR,,0.00,WeatherDisplay:10.37,2013-02-28 22:11:00,
2013-02-28 17:16:00,70.2,52.7,29.88,North,0,0.0,0.1,54,0.00,CLR,,0.00,WeatherDisplay:10.37,2013-02-28 22:16:00,
2013-02-28 17:21:00,70.2,52.7,29.88,SW,225,0.0,0.2,54,0.00,CLR,,0.00,WeatherDisplay:10.37,2013-02-28 22:21:00,
2013-02-28 17:26:00,70.3,53.4,29.88,SSE,158,0.0,0.2,55,0.00,CLR,,0.00,WeatherDisplay:10.37,2013-02-28 22:26:00,
2013-02-28 17:31:00,70.0,52.6,29.88,West,270,1.1,1.1,54,0.00,CLR,,0.00,WeatherDisplay:10.37,2013-02-28 22:31:00,
2013-02-28 17:36:00,69.6,52.2,29.88,SSE,158,0.0,0.3,54,0.00,CLR,,0.00,WeatherDisplay:10.37,2013-02-28 22:36:00,
2013-02-28 17:41:00,69.6,52.2,29.88,NW,315,0.0,0.3,54,0.00,CLR,,0.00,WeatherDisplay:10.37,2013-02-28 22:41:00,
2013-02-28 17:46:00,69.1,52.2,29.88,NW,315,0.0,0.3,55,0.00,CLR,,0.00,WeatherDisplay:10.37,2013-02-28 22:46:00,
2013-02-28 17:51:00,69.3,52.9,29.89,WSW,248,0.0,0.3,56,0.00,CLR,,0.00,WeatherDisplay:10.37,2013-02-28 22:51:00,
2013-02-28 17:56:00,68.9,52.6,29.89,WSW,248,0.0,0.5,56,0.00,CLR,,0.00,WeatherDisplay:10.37,2013-02-28 22:56:00,
2013-02-28 18:01:00,68.9,52.6,29.89,West,270,1.6,1.6,56,0.00,CLR,,0.00,WeatherDisplay:10.37,2013-02-28 23:01:00,
2013-02-28 18:06:00,68.5,53.2,29.89,SW,225,2.3,2.3,58,0.00,CLR,,0.00,WeatherDisplay:10.37,2013-02-28 23:06:00,
2013-02-28 18:11:00,68.5,53.2,29.89,SSE,158,0.0,0.3,58,0.00,CLR,,0.00,WeatherDisplay:10.37,2013-02-28 23:11:00,
2013-02-28 18:16:00,68.2,53.3,29.89,WSW,248,0.0,0.3,59,0.00,CLR,,0.00,WeatherDisplay:10.37,2013-02-28 23:16:00,
2013-02-28 18:21:00,67.8,53.4,29.89,WSW,248,0.0,0.1,60,0.00,CLR,,0.00,WeatherDisplay:10.37,2013-02-28 23:21:00,
2013-02-28 18:26:00,67.8,53.9,29.89,WSW,248,0.0,0.1,61,0.00,CLR,,0.00,WeatherDisplay:10.37,2013-02-28 23:26:00,
2013-02-28 18:31:00,67.3,53.4,29.89,NW,315,0.0,0.1,61,0.00,CLR,,0.00,WeatherDisplay:10.37,2013-02-28 23:31:00,
2013-02-28 18:36:00,67.1,53.6,29.89,South,180,0.0,0.1,62,0.00,CLR,,0.00,WeatherDisplay:10.37,2013-02-28 23:36:00,
2013-02-28 18:41:00,67.1,54.1,29.89,WSW,248,0.0,0.1,63,0.00,CLR,,0.00,WeatherDisplay:10.37,2013-02-28 23:41:00,
2013-02-28 18:46:00,67.1,54.1,29.89,SSW,202,0.0,0.1,63,0.00,CLR,,0.00,WeatherDisplay:10.37,2013-02-28 23:46:00,
2013-02-28 18:51:00,67.1,54.1,29.89,West,270,0.0,0.1,63,0.00,CLR,,0.00,WeatherDisplay:10.37,2013-02-28 23:51:00,
2013-02-28 18:56:00,66.7,53.7,29.89,WSW,248,0.0,0.3,63,0.00,CLR,,0.00,WeatherDisplay:10.37,2013-02-28 23:56:00,
2013-02-28 19:01:00,66.7,53.7,29.89,West,270,0.0,0.3,63,0.00,CLR,,0.00,WeatherDisplay:10.37,2013-03-01 00:01:00,
2013-02-28 19:06:00,66.7,53.7,29.89,SE,135,0.0,0.2,63,0.00,CLR,,0.00,WeatherDisplay:10.37,2013-03-01 00:06:00,
2013-02-28 19:11:00,66.6,54.0,29.89,WSW,248,0.0,0.1,64,0.00,CLR,,0.00,WeatherDisplay:10.37,2013-03-01 00:11:00,
2013-02-28 19:16:00,66.4,53.8,29.89,WSW,248,1.1,1.1,64,0.00,CLR,,0.00,WeatherDisplay:10.37,2013-03-01 00:16:00,
2013-02-28 19:21:00,66.4,53.8,29.89,WSW,248,0.0,0.1,64,0.00,CLR,,0.00,WeatherDisplay:10.37,2013-03-01 00:21:00,
2013-02-28 19:26:00,66.2,53.7,29.89,NW,315,0.0,0.1,64,0.00,CLR,,0.00,WeatherDisplay:10.37,2013-03-01 00:26:00,
2013-02-28 19:31:00,66.0,53.9,29.89,WSW,248,0.0,0.1,65,0.00,CLR,,0.00,WeatherDisplay:10.37,2013-03-01 00:31:00,
2013-02-28 19:36:00,66.0,53.9,29.89,NW,315,0.0,0.0,65,0.00,CLR,,0.00,WeatherDisplay:10.37,2013-03-01 00:36:00,
2013-02-28 19:41:00,65.8,53.3,29.89,NE,45,1.1,1.1,64,0.00,CLR,,0.00,WeatherDisplay:10.37,2013-03-01 00:41:00,
2013-02-28 19:46:00,65.8,53.7,29.89,SW,225,2.3,2.3,65,0.00,CLR,,0.00,WeatherDisplay:10.37,2013-03-01 00:46:00,
2013-02-28 19:51:00,65.8,53.7,29.90,SE,135,0.0,0.3,65,0.00,CLR,,0.00,WeatherDisplay:10.37,2013-03-01 00:51:00,
2013-02-28 19:56:00,65.8,53.7,29.90,WNW,292,1.1,1.1,65,0.00,CLR,,0.00,WeatherDisplay:10.37,2013-03-01 00:56:00,
2013-02-28 20:01:00,65.7,53.6,29.90,WSW,248,1.1,1.1,65,0.00,CLR,,0.00,WeatherDisplay:10.37,2013-03-01 01:01:00,
2013-02-28 20:06:00,65.5,53.8,29.90,WNW,292,0.0,0.0,66,0.00,CLR,,0.00,WeatherDisplay:10.37,2013-03-01 01:06:00,
2013-02-28 20:11:00,65.3,53.6,29.90,WNW,292,0.0,0.1,66,0.00,CLR,,0.00,WeatherDisplay:10.37,2013-03-01 01:11:00,
2013-02-28 20:16:00,65.3,53.6,29.90,WNW,292,0.0,0.1,66,0.00,CLR,,0.00,WeatherDisplay:10.37,2013-03-01 01:16:00,
2013-02-28 20:21:00,65.1,53.5,29.90,WSW,248,0.0,0.0,66,0.00,CLR,,0.00,WeatherDisplay:10.37,2013-03-01 01:21:00,
2013-02-28 20:26:00,65.1,53.9,29.90,NE,45,0.0,0.0,67,0.00,CLR,,0.00,WeatherDisplay:10.37,2013-03-01 01:26:00,
2013-02-28 20:31:00,64.9,53.7,29.90,SW,225,0.0,0.0,67,0.00,CLR,,0.00,WeatherDisplay:10.37,2013-03-01 01:31:00,
2013-02-28 20:36:00,64.9,53.7,29.90,SW,225,0.0,0.0,67,0.00,CLR,,0.00,WeatherDisplay:10.37,2013-03-01 01:36:00,
2013-02-28 20:41:00,64.8,53.5,29.90,SW,225,0.0,0.0,67,0.00,CLR,,0.00,WeatherDisplay:10.37,2013-03-01 01:41:00,
2013-02-28 20:47:00,64.8,53.5,29.90,South,180,0.0,0.0,67,0.00,CLR,,0.00,WeatherDisplay:10.37,2013-03-01 01:47:00,
2013-02-28 20:52:00,64.6,53.4,29.90,WSW,248,0.0,0.0,67,0.00,CLR,,0.00,WeatherDisplay:10.37,2013-03-01 01:52:00,
2013-02-28 20:57:00,64.6,53.4,29.90,South,180,0.0,0.1,67,0.00,CLR,,0.00,WeatherDisplay:10.37,2013-03-01 01:57:00,
2013-02-28 21:02:00,64.4,53.2,29.90,WSW,248,0.0,0.1,67,0.00,CLR,,0.00,WeatherDisplay:10.37,2013-03-01 02:02:00,
2013-02-28 21:07:00,64.6,53.8,29.90,SSW,202,0.0,0.0,68,0.00,CLR,,0.00,WeatherDisplay:10.37,2013-03-01 02:07:00,
2013-02-28 21:12:00,64.6,53.8,29.90,SW,225,0.0,0.0,68,0.00,CLR,,0.00,WeatherDisplay:10.37,2013-03-01 02:12:00,
2013-02-28 21:17:00,64.4,53.6,29.90,WSW,248,0.0,0.0,68,0.00,CLR,,0.00,WeatherDisplay:10.37,2013-03-01 02:17:00,
2013-02-28 21:22:00,64.4,53.6,29.90,WNW,292,0.0,0.0,68,0.00,CLR,,0.00,WeatherDisplay:10.37,2013-03-01 02:22:00,
2013-02-28 21:27:00,64.4,53.6,29.90,SSW,202,0.0,0.1,68,0.00,CLR,,0.00,WeatherDisplay:10.37,2013-03-01 02:27:00,
2013-02-28 21:32:00,64.2,53.4,29.91,SW,225,0.0,0.2,68,0.00,CLR,,0.00,WeatherDisplay:10.37,2013-03-01 02:32:00,
2013-02-28 21:37:00,64.4,53.6,29.91,WSW,248,0.0,0.1,68,0.00,CLR,,0.00,WeatherDisplay:10.37,2013-03-01 02:37:00,
2013-02-28 21:42:00,64.2,53.8,29.91,NNW,338,0.0,0.0,69,0.00,CLR,,0.00,WeatherDisplay:10.37,2013-03-01 02:42:00,
2013-02-28 21:47:00,64.4,54.0,29.91,NW,315,0.0,0.0,69,0.00,CLR,,0.00,WeatherDisplay:10.37,2013-03-01 02:47:00,
2013-02-28 21:52:00,64.4,54.0,29.91,West,270,0.0,0.0,69,0.00,CLR,,0.00,WeatherDisplay:10.37,2013-03-01 02:52:00,
2013-02-28 21:57:00,64.4,54.0,29.91,WSW,248,0.0,0.1,69,0.00,CLR,,0.00,WeatherDisplay:10.37,2013-03-01 02:57:00,
2013-02-28 22:02:00,64.2,53.8,29.91,SW,225,0.0,0.1,69,0.00,CLR,,0.00,WeatherDisplay:10.37,2013-03-01 03:02:00,
2013-02-28 22:07:00,64.6,54.2,29.91,WSW,248,0.0,0.1,69,0.00,CLR,,0.00,WeatherDisplay:10.37,2013-03-01 03:07:00,
2013-02-28 22:12:00,64.6,54.2,29.91,NNW,338,0.0,0.1,69,0.00,CLR,,0.00,WeatherDisplay:10.37,2013-03-01 03:12:00,
2013-02-28 22:17:00,64.6,54.2,29.91,NW,315,0.0,0.1,69,0.00,CLR,,0.00,WeatherDisplay:10.37,2013-03-01 03:17:00,
2013-02-28 22:22:00,64.9,54.5,29.91,NE,45,0.0,0.1,69,0.00,CLR,,0.00,WeatherDisplay:10.37,2013-03-01 03:22:00,
2013-02-28 22:27:00,64.9,54.5,29.91,SW,225,0.0,0.1,69,0.00,CLR,,0.00,WeatherDisplay:10.37,2013-03-01 03:27:00,
2013-02-28 22:32:00,64.9,54.1,29.90,West,270,2.3,2.3,68,0.00,CLR,,0.00,WeatherDisplay:10.37,2013-03-01 03:32:00,
2013-02-28 22:37:00,64.9,54.1,29.90,WNW,292,0.0,0.1,68,0.00,CLR,,0.00,WeatherDisplay:10.37,2013-03-01 03:37:00,
2013-02-28 22:42:00,64.9,54.1,29.90,SSW,202,0.0,0.2,68,0.00,CLR,,0.00,WeatherDisplay:10.37,2013-03-01 03:42:00,
2013-02-28 22:47:00,64.9,54.1,29.90,WSW,248,1.1,1.1,68,0.00,CLR,,0.00,WeatherDisplay:10.37,2013-03-01 03:47:00,
2013-02-28 22:52:00,64.9,53.7,29.90,East,90,0.0,0.3,67,0.00,CLR,,0.00,WeatherDisplay:10.37,2013-03-01 03:52:00,
2013-02-28 22:57:00,64.9,53.7,29.90,West,270,0.0,0.3,67,0.00,CLR,,0.00,WeatherDisplay:10.37,2013-03-01 03:57:00,
2013-02-28 23:02:00,64.9,54.1,29.90,SW,225,0.0,0.3,68,0.00,CLR,,0.00,WeatherDisplay:10.37,2013-03-01 04:02:00,
2013-02-28 23:07:00,64.9,54.1,29.90,SW,225,0.0,0.2,68,0.00,CLR,,0.00,WeatherDisplay:10.37,2013-03-01 04:07:00,
2013-02-28 23:12:00,64.9,54.1,29.90,West,270,0.0,0.1,68,0.00,CLR,,0.00,WeatherDisplay:10.37,2013-03-01 04:12:00,
2013-02-28 23:17:00,64.9,54.1,29.90,NNE,22,0.0,0.2,68,0.00,CLR,,0.00,WeatherDisplay:10.37,2013-03-01 04:17:00,
2013-02-28 23:22:00,64.9,54.1,29.90,West,270,0.0,0.1,68,0.00,CLR,,0.00,WeatherDisplay:10.37,2013-03-01 04:22:00,
2013-02-28 23:27:00,64.9,54.1,29.90,South,180,0.0,0.0,68,0.00,CLR,,0.00,WeatherDisplay:10.37,2013-03-01 04:27:00,
2013-02-28 23:32:00,64.9,54.1,29.89,WSW,248,0.0,0.0,68,0.00,CLR,,0.00,WeatherDisplay:10.37,2013-03-01 04:32:00,
2013-02-28 23:37:00,64.8,53.9,29.89,West,270,0.0,0.1,68,0.00,CLR,,0.00,WeatherDisplay:10.37,2013-03-01 04:37:00,
2013-02-28 23:42:00,64.9,54.1,29.89,West,270,0.0,0.0,68,0.00,CLR,,0.00,WeatherDisplay:10.37,2013-03-01 04:42:00,
2013-02-28 23:47:00,64.9,54.5,29.89,NNW,338,0.0,0.0,69,0.00,CLR,,0.00,WeatherDisplay:10.37,2013-03-01 04:47:00,
2013-02-28 23:52:00,64.9,54.5,29.88,WSW,248,0.0,0.0,69,0.00,CLR,,0.00,WeatherDisplay:10.37,2013-03-01 04:52:00,
2013-02-28 23:57:00,64.9,54.5,29.88,NW,315,0.0,0.0,69,0.00,CLR,,0.00,WeatherDisplay:10.37,2013-03-01 04:57:00,